createdAt,value
2018-12-08T00:00:29.419Z,8.40
2018-12-08T00:03:04.033Z,8.30
2018-12-08T00:05:36.078Z,8.50
2018-12-08T00:08:06.308Z,8.40
2018-12-08T00:10:38.682Z,8.40
2018-12-08T00:13:13.844Z,8.40
2018-12-08T01:35:59.862Z,7.80
2018-12-08T02:23:50.472Z,7.90
2018-12-08T02:32:22.531Z,7.80
2018-12-08T02:35:02.688Z,7.70
2018-12-08T02:37:35.387Z,7.70
2018-12-08T02:42:59.636Z,7.80
2018-12-08T02:48:24.403Z,7.80
2018-12-08T02:51:05.409Z,7.80
2018-12-08T02:53:44.028Z,7.80
2018-12-08T02:56:25.681Z,7.80
2018-12-08T03:05:04.028Z,7.60
2018-12-08T03:07:36.905Z,7.60
2018-12-08T03:10:12.650Z,7.70
2018-12-08T03:18:52.200Z,7.60
2018-12-08T03:21:26.988Z,7.60
2018-12-08T03:24:09.686Z,7.50
2018-12-08T03:29:47.493Z,7.30
2018-12-08T03:32:21.966Z,7.40
2018-12-08T03:41:04.145Z,7.30
2018-12-08T03:43:47.100Z,7.30
2018-12-08T03:49:22.111Z,7.50
2018-12-08T03:52:01.393Z,7.50
2018-12-08T03:54:50.669Z,7.50
2018-12-08T04:45:49.703Z,7.40
2018-12-08T04:57:20.340Z,7.40
2018-12-08T04:59:54.182Z,7.40
2018-12-08T05:11:30.830Z,7.40
2018-12-08T05:17:09.694Z,7.40
2018-12-08T05:19:47.003Z,7.40
2018-12-08T05:22:36.155Z,7.40
2018-12-08T05:27:59.703Z,7.40
2018-12-08T05:33:43.106Z,7.40
2018-12-08T05:36:18.474Z,7.50
2018-12-08T05:38:50.742Z,7.50
2018-12-08T05:41:22.983Z,7.50
2018-12-08T05:43:55.107Z,7.50
2018-12-08T05:46:27.970Z,7.40
2018-12-08T05:49:00.922Z,7.50
2018-12-08T05:54:20.303Z,7.50
2018-12-08T05:56:53.391Z,7.40
2018-12-08T06:54:08.046Z,7.30
2018-12-08T06:56:48.586Z,7.30
2018-12-08T06:59:24.373Z,7.40
2018-12-08T07:02:02.169Z,7.40
2018-12-08T07:07:22.822Z,7.40
2018-12-08T07:09:57.210Z,7.40
2018-12-08T07:12:31.454Z,7.40
2018-12-08T07:15:13.411Z,7.30
2018-12-08T07:17:41.742Z,7.30
2018-12-08T07:20:17.927Z,7.30
2018-12-08T07:23:02.663Z,7.30
2018-12-08T07:25:35.709Z,7.40
2018-12-08T07:31:05.612Z,7.30
2018-12-08T07:54:24.532Z,7.40
2018-12-08T07:56:54.067Z,7.40
2018-12-08T07:59:26.507Z,7.40
2018-12-08T08:01:58.601Z,7.40
2018-12-08T08:04:33.197Z,7.40
2018-12-08T08:07:05.291Z,7.40
2018-12-08T08:09:46.145Z,7.40
2018-12-08T08:12:14.469Z,7.40
2018-12-08T08:14:42.841Z,7.50
2018-12-08T08:20:21.686Z,7.50
2018-12-08T08:22:50.026Z,7.50
2018-12-08T08:25:18.440Z,7.40
2018-12-08T08:27:46.773Z,7.40
2018-12-08T08:30:16.799Z,7.40
2018-12-08T08:33:01.228Z,7.30
2018-12-08T08:35:29.602Z,7.30
2018-12-08T08:37:58.011Z,7.20
2018-12-08T08:40:26.377Z,7.20
2018-12-08T08:42:54.788Z,7.20
2018-12-08T08:45:26.788Z,7.20
2018-12-08T08:48:01.058Z,7.20
2018-12-08T08:50:29.424Z,7.30
2018-12-08T08:52:57.778Z,7.20
2018-12-08T08:55:26.319Z,7.30
2018-12-08T08:57:54.786Z,7.50
2018-12-08T09:00:23.143Z,7.50
2018-12-08T09:02:53.327Z,7.50
2018-12-08T09:05:28.032Z,7.40
2018-12-08T09:08:02.167Z,7.40
2018-12-08T09:10:34.186Z,7.40
2018-12-08T09:13:08.419Z,7.40
2018-12-08T09:15:40.353Z,7.40
2018-12-08T09:18:12.324Z,7.40
2018-12-08T09:20:42.130Z,7.40
2018-12-08T09:23:14.052Z,7.40
2018-12-08T09:25:46.183Z,7.30
2018-12-08T09:28:18.282Z,7.30
2018-12-08T09:30:50.646Z,7.10
2018-12-08T09:33:24.999Z,7.20
2018-12-08T09:35:56.890Z,7.20
2018-12-08T09:38:28.553Z,7.20
2018-12-08T09:41:00.797Z,7.20
2018-12-08T09:49:19.667Z,7.20
2018-12-08T09:51:51.651Z,7.20
2018-12-08T09:54:26.166Z,7.20
2018-12-08T09:56:57.811Z,7.20
2018-12-08T09:59:32.376Z,7.20
2018-12-08T10:02:07.351Z,7.10
2018-12-08T10:04:41.420Z,7.10
2018-12-08T10:07:12.890Z,7.10
2018-12-08T10:09:47.628Z,7.10
2018-12-08T10:12:20.123Z,7.10
2018-12-08T10:14:50.172Z,7.20
2018-12-08T10:17:22.666Z,7.20
2018-12-08T10:19:57.091Z,7.10
2018-12-08T10:22:31.292Z,7.10
2018-12-08T10:25:04.139Z,7.00
2018-12-08T10:27:36.232Z,7.10
2018-12-08T10:30:17.615Z,7.10
2018-12-08T10:32:49.751Z,7.00
2018-12-08T10:35:23.935Z,7.00
2018-12-08T10:46:49.854Z,6.90
2018-12-08T10:49:36.953Z,7.00
2018-12-08T10:52:08.808Z,6.90
2018-12-08T11:23:54.007Z,6.90
2018-12-08T11:29:27.779Z,7.00
2018-12-08T11:52:28.008Z,7.30
2018-12-08T12:01:15.462Z,7.40
2018-12-08T12:12:47.912Z,7.60
2018-12-08T12:15:20.222Z,7.80
2018-12-08T12:17:52.541Z,7.90
2018-12-08T12:20:24.763Z,7.90
2018-12-08T12:22:56.654Z,7.90
2018-12-08T12:25:29.168Z,7.90
2018-12-08T12:28:01.218Z,8.00
2018-12-08T12:30:33.279Z,8.10
2018-12-08T12:33:05.379Z,8.00
2018-12-08T12:35:37.470Z,8.00
2018-12-08T12:38:09.797Z,8.10
2018-12-08T12:40:39.709Z,8.00
2018-12-08T12:43:09.954Z,8.10
2018-12-08T12:45:42.309Z,8.00
2018-12-08T12:48:14.431Z,7.90
2018-12-08T12:59:36.655Z,7.80
2018-12-08T13:02:05.192Z,7.90
2018-12-08T13:04:39.135Z,8.00
2018-12-08T13:07:07.550Z,8.00
2018-12-08T13:09:37.538Z,8.00
2018-12-08T13:12:07.769Z,7.90
2018-12-08T13:14:39.587Z,8.00
2018-12-08T13:17:13.546Z,7.90
2018-12-08T13:28:21.982Z,7.80
2018-12-08T13:30:53.754Z,7.80
2018-12-08T13:33:22.158Z,7.80
2018-12-08T13:35:52.970Z,7.90
2018-12-08T13:38:23.461Z,7.80
2018-12-08T13:40:55.962Z,7.80
2018-12-08T13:43:27.761Z,7.80
2018-12-08T13:45:59.580Z,7.90
2018-12-08T13:48:34.297Z,7.90
2018-12-08T13:51:04.555Z,8.00
2018-12-08T13:53:38.947Z,8.00
2018-12-08T13:56:13.018Z,8.00
2018-12-08T13:58:46.902Z,8.10
2018-12-08T14:01:21.154Z,8.10
2018-12-08T14:03:55.275Z,8.10
2018-12-08T14:06:27.211Z,8.10
2018-12-08T14:08:59.289Z,8.20
2018-12-08T14:11:36.712Z,8.20
2018-12-08T14:14:09.345Z,8.20
2018-12-08T14:16:43.467Z,8.20
2018-12-08T14:19:17.620Z,8.30
2018-12-08T14:21:49.535Z,8.40
2018-12-08T14:24:24.077Z,8.50
2018-12-08T14:26:56.835Z,8.50
2018-12-08T14:29:29.282Z,8.50
2018-12-08T15:02:09.538Z,8.50
2018-12-08T15:04:39.407Z,8.40
2018-12-08T15:07:14.233Z,8.40
2018-12-08T15:09:51.020Z,8.30
2018-12-08T15:12:25.066Z,8.30
2018-12-08T15:14:55.631Z,8.30
2018-12-08T15:17:28.104Z,7.90
2018-12-08T15:19:59.952Z,8.20
2018-12-08T15:22:32.017Z,8.10
2018-12-08T15:25:04.828Z,8.20
2018-12-08T15:27:34.442Z,8.10
2018-12-08T15:30:09.998Z,8.00
2018-12-08T15:32:40.328Z,8.00
2018-12-08T15:35:11.807Z,8.00
2018-12-08T15:37:40.479Z,8.00
2018-12-08T15:40:10.085Z,8.00
2018-12-08T15:42:38.459Z,7.90
2018-12-08T15:45:11.316Z,7.90
2018-12-08T15:47:43.903Z,8.00
2018-12-08T15:50:18.382Z,8.00
2018-12-08T15:52:48.459Z,8.00
2018-12-08T15:55:22.852Z,8.00
2018-12-08T15:57:55.114Z,8.00
2018-12-08T16:00:26.918Z,8.00
2018-12-08T16:02:59.253Z,8.00
2018-12-08T16:05:31.475Z,8.00
2018-12-08T16:08:05.398Z,8.00
2018-12-08T16:10:37.836Z,8.10
2018-12-08T16:13:10.829Z,8.10
2018-12-08T16:15:42.837Z,8.10
2018-12-08T16:18:14.670Z,8.10
2018-12-08T16:20:46.779Z,8.10
2018-12-08T16:23:21.036Z,8.10
2018-12-08T16:25:55.079Z,8.10
2018-12-08T16:28:26.870Z,8.00
2018-12-08T16:30:59.135Z,8.00
2018-12-08T16:33:29.425Z,8.00
2018-12-08T16:36:01.670Z,8.00
2018-12-08T16:38:34.359Z,8.00
2018-12-08T16:41:09.094Z,8.00
2018-12-08T16:43:40.938Z,8.00
2018-12-08T16:46:12.833Z,8.10
2018-12-08T16:48:45.195Z,8.00
2018-12-08T16:51:15.395Z,8.00
2018-12-08T16:53:47.513Z,8.00
2018-12-08T16:56:19.565Z,8.00
2018-12-08T16:58:51.669Z,8.10
2018-12-08T17:01:25.676Z,8.00
2018-12-08T17:03:59.583Z,8.00
2018-12-08T17:06:32.411Z,7.90
2018-12-08T17:09:04.192Z,7.90
2018-12-08T17:11:36.913Z,7.90
2018-12-08T17:14:11.118Z,8.00
2018-12-08T17:16:43.283Z,8.00
2018-12-08T17:19:15.551Z,8.00
2018-12-08T17:21:47.758Z,8.00
2018-12-08T17:24:19.739Z,8.00
2018-12-08T17:26:49.915Z,8.00
2018-12-08T17:29:24.838Z,8.00
2018-12-08T17:31:57.582Z,8.10
2018-12-08T17:34:33.894Z,8.10
2018-12-08T17:37:05.880Z,8.10
2018-12-08T17:39:38.266Z,8.10
2018-12-08T17:42:12.634Z,8.10
2018-12-08T17:44:46.807Z,8.00
2018-12-08T17:47:18.404Z,8.00
2018-12-08T17:49:51.048Z,8.00
2018-12-08T17:52:25.616Z,8.00
2018-12-08T17:54:57.619Z,8.00
2018-12-08T17:57:27.955Z,8.00
2018-12-08T18:00:00.049Z,8.00
2018-12-08T18:02:34.750Z,8.00
2018-12-08T18:05:08.745Z,8.00
2018-12-08T18:07:38.474Z,8.10
2018-12-08T18:10:11.083Z,8.00
2018-12-08T18:12:45.242Z,8.10
2018-12-08T18:15:16.875Z,8.00
2018-12-08T18:17:49.057Z,8.10
2018-12-08T18:20:20.997Z,8.10
2018-12-08T18:22:53.107Z,8.10
2018-12-08T18:25:25.416Z,8.10
2018-12-08T18:27:57.628Z,8.10
2018-12-08T18:30:31.952Z,8.10
2018-12-08T18:33:06.015Z,8.10
2018-12-08T18:35:38.264Z,8.10
2018-12-08T18:38:10.417Z,8.10
2018-12-08T18:40:42.695Z,8.10
2018-12-08T18:52:00.667Z,8.30
2018-12-08T18:54:33.327Z,8.30
2018-12-08T18:57:06.095Z,8.30
2018-12-08T18:59:40.996Z,8.30
2018-12-08T19:02:15.811Z,8.30
2018-12-08T19:04:47.559Z,8.20
2018-12-08T19:07:21.021Z,8.20
2018-12-08T19:09:55.532Z,8.20
2018-12-08T19:12:42.384Z,8.20
2018-12-08T19:15:12.312Z,8.20
2018-12-08T19:17:44.361Z,8.10
2018-12-08T19:20:16.411Z,8.10
2018-12-08T19:22:51.754Z,8.10
2018-12-08T19:25:24.059Z,8.10
2018-12-08T19:27:55.973Z,8.10
2018-12-08T19:30:27.954Z,8.10
2018-12-08T19:33:03.436Z,8.20
2018-12-08T19:35:37.483Z,8.20
2018-12-08T19:38:13.054Z,8.20
2018-12-08T19:40:47.332Z,8.10
2018-12-08T19:43:18.868Z,8.10
2018-12-08T19:45:52.571Z,8.10
2018-12-08T19:48:25.338Z,8.10
2018-12-08T19:50:55.647Z,8.10
2018-12-08T19:53:27.685Z,8.10
2018-12-08T19:56:07.837Z,8.10
2018-12-08T19:58:43.379Z,8.10
2018-12-08T20:01:17.338Z,8.20
2018-12-08T20:03:50.024Z,8.10
2018-12-08T20:06:21.990Z,8.10
2018-12-08T20:08:56.627Z,8.20
2018-12-08T20:11:26.076Z,8.10
2018-12-08T20:13:55.123Z,8.10
2018-12-08T20:16:26.701Z,8.10
2018-12-08T20:19:03.233Z,8.10
2018-12-08T20:21:35.080Z,8.20
2018-12-08T20:24:07.511Z,8.10
2018-12-08T20:26:43.193Z,8.10
2018-12-08T20:29:17.290Z,8.10
2018-12-08T20:31:50.494Z,8.10
2018-12-08T20:34:24.384Z,8.00
2018-12-08T20:36:56.253Z,8.00
2018-12-08T20:39:28.354Z,8.00
2018-12-08T20:42:02.426Z,8.00
2018-12-08T20:44:34.807Z,8.10
2018-12-08T20:47:07.614Z,8.00
2018-12-08T20:49:42.760Z,8.00
2018-12-08T20:52:17.559Z,8.00
2018-12-08T20:54:51.823Z,8.10
2018-12-08T20:57:28.002Z,8.10
2018-12-08T21:00:02.299Z,8.20
2018-12-08T21:02:40.622Z,8.20
2018-12-08T21:08:08.164Z,8.30
2018-12-08T21:10:41.121Z,8.40
2018-12-08T21:13:13.026Z,8.40
2018-12-08T21:15:46.973Z,8.50
2018-12-08T21:18:19.825Z,8.50
2018-12-08T21:20:53.781Z,8.60
2018-12-08T21:43:35.854Z,8.80
2018-12-08T21:46:09.070Z,8.80
2018-12-08T21:48:43.129Z,8.80
2018-12-08T21:51:15.057Z,8.80
2018-12-08T21:53:47.731Z,8.80
2018-12-08T21:56:22.665Z,8.80
2018-12-08T21:58:56.799Z,8.90
2018-12-08T22:01:31.841Z,8.90
2018-12-08T22:04:05.880Z,8.90
2018-12-08T22:06:39.056Z,9.00
2018-12-08T22:09:11.623Z,9.00
2018-12-08T22:12:32.016Z,9.10
2018-12-08T22:15:09.400Z,9.10
2018-12-08T22:17:42.268Z,9.00
2018-12-08T22:20:16.888Z,9.00
2018-12-08T22:22:50.957Z,9.00
2018-12-08T22:25:21.229Z,9.10
2018-12-08T22:27:51.827Z,9.00
2018-12-08T22:30:23.672Z,8.90
2018-12-08T22:32:56.137Z,8.90
2018-12-08T22:35:31.145Z,8.90
2018-12-08T22:38:03.090Z,8.90
2018-12-08T22:40:35.169Z,8.90
2018-12-08T22:43:05.364Z,8.90
2018-12-08T23:00:00.235Z,9.00
2018-12-08T23:02:32.159Z,9.00
2018-12-08T23:05:00.523Z,9.10
2018-12-08T23:07:32.623Z,9.10
2018-12-08T23:10:07.118Z,9.10
2018-12-08T23:12:41.182Z,9.10
2018-12-08T23:15:15.360Z,9.10
2018-12-08T23:17:47.056Z,9.10
2018-12-08T23:20:19.122Z,9.00
2018-12-08T23:23:11.060Z,9.10
2018-12-08T23:25:42.894Z,9.10
2018-12-08T23:28:15.223Z,9.00
2018-12-08T23:30:52.186Z,9.10
2018-12-08T23:33:24.202Z,9.10
2018-12-08T23:35:56.618Z,9.10
2018-12-08T23:38:28.413Z,9.10
2018-12-08T23:41:00.486Z,9.10
2018-12-08T23:43:32.166Z,9.10
2018-12-08T23:46:04.308Z,9.10
2018-12-08T23:48:36.306Z,9.10
2018-12-08T23:51:08.190Z,9.10
2018-12-08T23:53:42.794Z,9.10
2018-12-08T23:56:15.431Z,9.20
2018-12-08T23:58:47.473Z,9.20
